createdAt,value
2018-09-20T00:00:52.323Z,18.62
2018-09-20T00:01:52.289Z,18.58
2018-09-20T00:02:52.205Z,18.60
2018-09-20T00:03:52.169Z,18.50
2018-09-20T00:04:52.205Z,18.44
2018-09-20T00:05:52.057Z,18.40
2018-09-20T00:06:52.095Z,18.38
2018-09-20T00:07:51.966Z,18.52
2018-09-20T00:08:51.935Z,18.43
2018-09-20T00:09:51.934Z,18.52
2018-09-20T00:10:51.935Z,18.43
2018-09-20T00:11:51.851Z,18.41
2018-09-20T00:12:51.816Z,18.35
2018-09-20T00:13:51.702Z,18.31
2018-09-20T00:14:51.700Z,18.29
2018-09-20T00:15:51.619Z,18.38
2018-09-20T00:16:51.615Z,18.40
2018-09-20T00:17:51.581Z,18.40
2018-09-20T00:18:51.583Z,18.40
2018-09-20T00:19:51.462Z,18.47
2018-09-20T00:20:51.384Z,18.44
2018-09-20T00:21:51.349Z,18.35
2018-09-20T00:22:51.347Z,18.31
2018-09-20T00:23:51.346Z,18.26
2018-09-20T00:24:51.227Z,18.28
2018-09-20T00:25:51.228Z,18.19
2018-09-20T00:26:51.113Z,18.11
2018-09-20T00:27:51.110Z,18.23
2018-09-20T00:28:51.113Z,18.15
2018-09-20T00:29:50.995Z,18.11
2018-09-20T00:30:50.994Z,18.13
2018-09-20T00:31:50.914Z,18.13
2018-09-20T00:32:50.875Z,18.15
2018-09-20T00:33:50.876Z,18.16
2018-09-20T00:34:50.756Z,18.10
2018-09-20T00:35:50.759Z,18.20
2018-09-20T00:36:50.674Z,18.10
2018-09-20T00:37:50.641Z,18.11
2018-09-20T00:38:50.643Z,18.15
2018-09-20T00:39:50.553Z,18.07
2018-09-20T00:40:50.555Z,18.01
2018-09-20T00:41:50.436Z,18.01
2018-09-20T00:42:50.403Z,17.97
2018-09-20T00:43:50.406Z,18.05
2018-09-20T00:44:50.321Z,17.95
2018-09-20T00:45:50.287Z,18.01
2018-09-20T00:46:50.210Z,18.05
2018-09-20T00:47:50.169Z,17.98
2018-09-20T00:48:50.290Z,18.03
2018-09-20T00:49:50.084Z,18.05
2018-09-20T00:50:50.053Z,18.00
2018-09-20T00:51:49.966Z,17.98
2018-09-20T00:52:50.054Z,18.01
2018-09-20T00:53:50.054Z,17.98
2018-09-20T00:54:49.935Z,17.98
2018-09-20T00:55:49.936Z,18.01
2018-09-20T00:56:49.938Z,18.01
2018-09-20T00:57:49.818Z,17.83
2018-09-20T00:58:49.940Z,18.00
2018-09-20T00:59:49.701Z,17.89
2018-09-20T01:00:49.702Z,17.87
2018-09-20T01:01:49.702Z,17.92
2018-09-20T01:02:49.703Z,17.85
2018-09-20T01:03:49.584Z,17.90
2018-09-20T01:04:49.465Z,17.87
2018-09-20T01:05:49.467Z,17.90
2018-09-20T01:06:49.469Z,17.80
2018-09-20T01:07:49.468Z,17.90
2018-09-20T01:08:49.348Z,17.94
2018-09-20T01:09:49.229Z,17.89
2018-09-20T01:10:49.232Z,17.87
2018-09-20T01:11:49.233Z,17.92
2018-09-20T01:12:49.233Z,17.89
2018-09-20T01:13:49.115Z,17.89
2018-09-20T01:14:49.115Z,17.90
2018-09-20T01:15:49.116Z,17.89
2018-09-20T01:16:48.997Z,17.86
2018-09-20T01:17:48.878Z,17.87
2018-09-20T01:18:48.999Z,17.78
2018-09-20T01:19:48.879Z,17.86
2018-09-20T01:20:48.761Z,17.80
2018-09-20T01:21:48.762Z,17.80
2018-09-20T01:22:48.642Z,17.80
2018-09-20T01:23:48.763Z,17.79
2018-09-20T01:24:48.645Z,17.83
2018-09-20T01:25:48.646Z,17.80
2018-09-20T01:26:48.526Z,17.74
2018-09-20T01:27:48.407Z,17.76
2018-09-20T01:28:48.407Z,17.76
2018-09-20T01:29:48.530Z,17.78
2018-09-20T01:30:48.290Z,17.74
2018-09-20T01:31:48.292Z,17.76
2018-09-20T01:32:48.173Z,17.71
2018-09-20T01:33:48.174Z,17.70
2018-09-20T01:34:48.293Z,17.65
2018-09-20T01:35:48.057Z,17.72
2018-09-20T01:36:48.056Z,17.64
2018-09-20T01:37:48.057Z,17.68
2018-09-20T01:38:47.941Z,17.71
2018-09-20T01:39:48.060Z,17.74
2018-09-20T01:40:47.821Z,17.79
2018-09-20T01:41:47.821Z,17.82
2018-09-20T01:42:47.822Z,17.83
2018-09-20T01:43:47.703Z,17.72
2018-09-20T01:44:47.832Z,17.82
2018-09-20T01:45:47.704Z,17.72
2018-09-20T01:46:47.585Z,17.78
2018-09-20T01:47:47.586Z,17.74
2018-09-20T01:48:47.467Z,17.78
2018-09-20T01:49:47.469Z,17.72
2018-09-20T01:50:47.470Z,17.72
2018-09-20T01:51:47.350Z,17.71
2018-09-20T01:52:47.350Z,17.71
2018-09-20T01:53:47.233Z,17.71
2018-09-20T01:54:47.232Z,17.64
2018-09-20T01:55:47.234Z,17.72
2018-09-20T01:56:47.052Z,17.59
2018-09-20T01:57:47.115Z,17.56
2018-09-20T01:58:46.997Z,17.72
2018-09-20T01:59:46.931Z,17.64
2018-09-20T02:00:46.933Z,17.64
2018-09-20T02:01:46.812Z,17.67
2018-09-20T02:02:46.813Z,17.68
2018-09-20T02:03:46.695Z,17.71
2018-09-20T02:04:46.649Z,17.78
2018-09-20T02:05:46.650Z,17.70
2018-09-20T02:06:46.535Z,17.64
2018-09-20T02:07:46.577Z,17.70
2018-09-20T02:08:46.460Z,17.60
2018-09-20T02:09:46.415Z,17.59
2018-09-20T02:10:46.415Z,17.60
2018-09-20T02:11:46.294Z,17.59
2018-09-20T02:12:46.338Z,17.63
2018-09-20T02:13:46.218Z,17.57
2018-09-20T02:14:46.340Z,17.59
2018-09-20T02:15:46.177Z,17.52
2018-09-20T02:16:46.059Z,17.51
2018-09-20T02:17:46.060Z,17.48
2018-09-20T02:18:45.982Z,17.52
2018-09-20T02:19:46.065Z,17.59
2018-09-20T02:20:45.941Z,17.48
2018-09-20T02:21:45.860Z,17.42
2018-09-20T02:22:45.823Z,17.45
2018-09-20T02:23:45.744Z,17.51
2018-09-20T02:24:45.824Z,17.38
2018-09-20T02:25:45.707Z,17.30
2018-09-20T02:26:45.624Z,17.42
2018-09-20T02:27:45.587Z,17.39
2018-09-20T02:28:45.513Z,17.48
2018-09-20T02:29:45.507Z,17.48
2018-09-20T02:30:45.471Z,17.48
2018-09-20T02:31:45.484Z,17.45
2018-09-20T02:32:45.350Z,17.42
2018-09-20T02:33:45.270Z,17.33
2018-09-20T02:34:45.244Z,17.44
2018-09-20T02:35:45.233Z,17.33
2018-09-20T02:36:45.240Z,17.39
2018-09-20T02:37:45.114Z,17.34
2018-09-20T02:38:45.036Z,17.19
2018-09-20T02:39:44.998Z,17.42
2018-09-20T02:40:45.000Z,17.24
2018-09-20T02:41:44.999Z,17.29
2018-09-20T02:42:44.880Z,17.29
2018-09-20T02:43:44.879Z,17.30
2018-09-20T02:44:44.766Z,17.24
2018-09-20T02:45:44.762Z,17.29
2018-09-20T02:46:44.763Z,17.31
2018-09-20T02:47:44.644Z,17.38
2018-09-20T02:48:44.648Z,17.27
2018-09-20T02:49:44.531Z,17.36
2018-09-20T02:50:44.527Z,17.33
2018-09-20T02:51:44.561Z,17.34
2018-09-20T02:52:44.411Z,17.36
2018-09-20T02:53:44.411Z,17.38
2018-09-20T02:54:44.295Z,17.24
2018-09-20T02:55:44.292Z,17.29
2018-09-20T02:56:44.292Z,17.29
2018-09-20T02:57:44.174Z,17.27
2018-09-20T02:58:44.212Z,17.30
2018-09-20T02:59:44.079Z,17.30
2018-09-20T03:00:44.056Z,17.29
2018-09-20T03:01:43.974Z,17.29
2018-09-20T03:02:43.993Z,17.31
2018-09-20T03:03:43.939Z,17.31
2018-09-20T03:04:43.845Z,17.30
2018-09-20T03:05:43.821Z,17.30
2018-09-20T03:06:43.743Z,17.30
2018-09-20T03:07:43.824Z,17.29
2018-09-20T03:08:43.704Z,17.14
2018-09-20T03:09:43.601Z,17.19
2018-09-20T03:10:43.597Z,17.23
2018-09-20T03:11:43.517Z,17.15
2018-09-20T03:12:43.506Z,17.22
2018-09-20T03:13:43.519Z,17.19
2018-09-20T03:14:43.379Z,17.20
2018-09-20T03:15:43.349Z,17.29
2018-09-20T03:16:43.287Z,17.23
2018-09-20T03:17:43.232Z,17.27
2018-09-20T03:18:43.354Z,17.26
2018-09-20T03:19:43.144Z,17.38
2018-09-20T03:20:43.119Z,17.38
2018-09-20T03:21:43.047Z,17.38
2018-09-20T03:22:42.997Z,17.41
2018-09-20T03:23:43.042Z,17.39
2018-09-20T03:24:42.917Z,17.39
2018-09-20T03:25:42.879Z,17.26
2018-09-20T03:26:42.805Z,17.24
2018-09-20T03:27:42.767Z,17.24
2018-09-20T03:28:42.882Z,17.27
2018-09-20T03:29:42.683Z,17.30
2018-09-20T03:30:42.744Z,17.29
2018-09-20T03:31:42.565Z,17.36
2018-09-20T03:32:42.536Z,17.38
2018-09-20T03:33:42.565Z,17.41
2018-09-20T03:34:42.449Z,17.42
2018-09-20T03:35:42.413Z,17.45
2018-09-20T03:36:42.413Z,17.39
2018-09-20T03:37:42.329Z,17.42
2018-09-20T03:38:42.301Z,17.34
2018-09-20T03:39:42.211Z,17.34
2018-09-20T03:40:42.177Z,17.42
2018-09-20T03:41:42.175Z,17.44
2018-09-20T03:42:42.056Z,17.33
2018-09-20T03:43:42.063Z,17.27
2018-09-20T03:44:41.972Z,17.33
2018-09-20T03:45:41.976Z,17.30
2018-09-20T03:46:41.853Z,17.38
2018-09-20T03:47:41.866Z,17.30
2018-09-20T03:48:41.827Z,17.27
2018-09-20T03:49:41.834Z,17.33
2018-09-20T03:50:41.703Z,17.24
2018-09-20T03:51:41.621Z,17.24
2018-09-20T03:52:41.590Z,17.20
2018-09-20T03:53:41.621Z,17.15
2018-09-20T03:54:41.501Z,17.19
2018-09-20T03:55:41.468Z,17.14
2018-09-20T03:56:41.384Z,17.16
2018-09-20T03:57:41.352Z,17.16
2018-09-20T03:58:41.389Z,17.20
2018-09-20T03:59:41.271Z,17.22
2018-09-20T04:00:41.233Z,17.26
2018-09-20T04:01:41.147Z,17.24
2018-09-20T04:02:41.116Z,17.30
2018-09-20T04:03:41.156Z,17.26
2018-09-20T04:04:41.037Z,17.30
2018-09-20T04:05:40.998Z,17.33
2018-09-20T04:06:40.997Z,17.39
2018-09-20T04:07:40.917Z,17.36
2018-09-20T04:08:40.882Z,17.36
2018-09-20T04:09:40.817Z,17.36
2018-09-20T04:10:40.765Z,17.29
2018-09-20T04:11:40.764Z,17.29
2018-09-20T04:12:40.686Z,17.41
2018-09-20T04:13:40.646Z,17.39
2018-09-20T04:14:40.570Z,17.39
2018-09-20T04:15:40.655Z,17.23
2018-09-20T04:16:40.528Z,17.30
2018-09-20T04:17:40.442Z,17.29
2018-09-20T04:18:40.410Z,17.19
2018-09-20T04:19:40.322Z,17.26
2018-09-20T04:20:40.412Z,17.24
2018-09-20T04:21:40.293Z,17.22
2018-09-20T04:22:40.213Z,17.24
2018-09-20T04:23:40.295Z,17.16
2018-09-20T04:24:40.087Z,17.19
2018-09-20T04:25:40.177Z,17.19
2018-09-20T04:26:40.059Z,17.16
2018-09-20T04:27:39.970Z,17.15
2018-09-20T04:28:39.941Z,17.12
2018-09-20T04:29:39.853Z,17.08
2018-09-20T04:30:40.065Z,17.14
2018-09-20T04:31:39.859Z,17.02
2018-09-20T04:32:39.823Z,17.08
2018-09-20T04:33:39.825Z,17.09
2018-09-20T04:34:39.704Z,17.14
2018-09-20T04:35:39.834Z,17.05
2018-09-20T04:36:39.711Z,17.08
2018-09-20T04:37:39.592Z,17.19
2018-09-20T04:38:39.589Z,17.16
2018-09-20T04:39:39.470Z,17.12
2018-09-20T04:40:39.591Z,17.16
2018-09-20T04:41:39.472Z,17.19
2018-09-20T04:42:39.358Z,17.15
2018-09-20T04:43:39.356Z,17.19
2018-09-20T04:44:39.237Z,17.16
2018-09-20T04:45:39.358Z,17.23
2018-09-20T04:46:39.238Z,17.24
2018-09-20T04:47:39.119Z,17.24
2018-09-20T04:48:39.118Z,17.22
2018-09-20T04:49:39.000Z,17.29
2018-09-20T04:50:39.122Z,17.29
2018-09-20T04:51:39.001Z,17.24
2018-09-20T04:52:38.882Z,17.29
2018-09-20T04:53:38.883Z,17.23
2018-09-20T04:54:38.764Z,17.26
2018-09-20T04:55:38.766Z,17.29
2018-09-20T04:56:38.886Z,17.30
2018-09-20T04:57:38.649Z,17.26
2018-09-20T04:58:38.649Z,17.30
2018-09-20T04:59:38.530Z,17.29
2018-09-20T05:00:38.531Z,17.16
2018-09-20T05:01:38.651Z,17.14
2018-09-20T05:02:38.418Z,17.09
2018-09-20T05:03:38.414Z,17.19
2018-09-20T05:04:38.415Z,17.04
2018-09-20T05:05:38.296Z,17.08
2018-09-20T05:06:38.416Z,16.90
2018-09-20T05:07:38.177Z,16.97
2018-09-20T05:08:38.178Z,16.89
2018-09-20T05:09:38.120Z,17.02
2018-09-20T05:10:38.181Z,16.89
2018-09-20T05:11:38.061Z,16.90
2018-09-20T05:12:37.943Z,16.99
2018-09-20T05:13:37.943Z,17.05
2018-09-20T05:14:37.823Z,17.06
2018-09-20T05:15:37.944Z,17.05
2018-09-20T05:16:37.826Z,17.05
2018-09-20T05:17:37.713Z,17.04
2018-09-20T05:18:37.707Z,17.02
2018-09-20T05:19:41.068Z,16.93
2018-09-20T05:20:37.711Z,16.99
2018-09-20T05:21:37.591Z,16.93
2018-09-20T05:22:37.472Z,16.90
2018-09-20T05:23:37.473Z,16.81
2018-09-20T05:24:37.353Z,16.75
2018-09-20T05:25:37.475Z,16.71
2018-09-20T05:26:37.476Z,16.69
2018-09-20T05:27:37.236Z,16.60
2018-09-20T05:28:37.238Z,16.69
2018-09-20T05:29:37.118Z,16.65
2018-09-20T05:30:37.119Z,16.75
2018-09-20T05:31:37.239Z,16.72
2018-09-20T05:32:37.003Z,16.75
2018-09-20T05:33:36.941Z,16.71
2018-09-20T05:34:36.819Z,16.71
2018-09-20T05:35:36.933Z,16.83
2018-09-20T05:36:36.941Z,16.75
2018-09-20T05:37:36.702Z,16.75
2018-09-20T05:38:36.701Z,16.75
2018-09-20T05:39:36.584Z,16.79
2018-09-20T05:40:36.583Z,16.81
2018-09-20T05:41:36.700Z,16.86
2018-09-20T05:42:36.415Z,16.87
2018-09-20T05:43:36.502Z,16.97
2018-09-20T05:44:36.343Z,16.89
2018-09-20T05:45:36.300Z,16.91
2018-09-20T05:46:36.413Z,16.99
2018-09-20T05:47:36.180Z,17.02
2018-09-20T05:48:36.301Z,16.99
2018-09-20T05:49:36.106Z,17.11
2018-09-20T05:50:36.064Z,17.20
2018-09-20T05:51:36.066Z,17.15
2018-09-20T05:52:35.945Z,17.22
2018-09-20T05:53:35.995Z,17.24
2018-09-20T05:54:35.878Z,17.31
2018-09-20T05:55:35.826Z,17.30
2018-09-20T05:56:35.873Z,17.30
2018-09-20T05:57:35.709Z,17.22
2018-09-20T05:58:35.708Z,17.31
2018-09-20T05:59:35.628Z,17.27
2018-09-20T06:00:35.631Z,17.31
2018-09-20T06:01:35.592Z,17.26
2018-09-20T06:02:35.475Z,17.29
2018-09-20T06:03:35.473Z,17.27
2018-09-20T06:04:35.392Z,17.39
2018-09-20T06:05:35.416Z,17.38
2018-09-20T06:06:35.354Z,17.38
2018-09-20T06:07:35.239Z,17.39
2018-09-20T06:08:35.272Z,17.44
2018-09-20T06:09:35.154Z,17.46
2018-09-20T06:10:35.118Z,17.51
2018-09-20T06:11:35.119Z,17.57
2018-09-20T06:12:35.032Z,17.60
2018-09-20T06:13:35.121Z,17.63
2018-09-20T06:14:34.926Z,17.67
2018-09-20T06:15:34.882Z,17.67
2018-09-20T06:16:34.884Z,17.76
2018-09-20T06:17:34.804Z,17.79
2018-09-20T06:18:34.806Z,17.78
2018-09-20T06:19:34.687Z,17.83
2018-09-20T06:20:34.689Z,17.90
2018-09-20T06:21:34.649Z,17.94
2018-09-20T06:22:34.569Z,17.89
2018-09-20T06:23:34.531Z,17.95
2018-09-20T06:24:34.531Z,18.03
2018-09-20T06:25:34.413Z,18.04
2018-09-20T06:26:34.413Z,18.07
2018-09-20T06:27:34.392Z,18.04
2018-09-20T06:28:34.294Z,18.04
2018-09-20T06:29:34.335Z,18.23
2018-09-20T06:30:34.178Z,18.23
2018-09-20T06:31:34.178Z,18.29
2018-09-20T06:32:34.098Z,18.34
2018-09-20T06:33:34.060Z,18.35
2018-09-20T06:34:34.100Z,18.44
2018-09-20T06:35:33.944Z,18.43
2018-09-20T06:36:33.949Z,18.47
2018-09-20T06:37:33.862Z,18.45
2018-09-20T06:38:33.891Z,18.45
2018-09-20T06:39:33.826Z,18.49
2018-09-20T06:40:33.728Z,18.66
2018-09-20T06:41:33.707Z,18.60
2018-09-20T06:42:33.622Z,18.63
2018-09-20T06:43:33.627Z,18.59
2018-09-20T06:44:33.590Z,18.74
2018-09-20T06:45:33.488Z,18.80
2018-09-20T06:46:33.472Z,18.83
2018-09-20T06:47:33.473Z,18.93
2018-09-20T06:48:33.395Z,18.98
2018-09-20T06:49:33.356Z,19.08
2018-09-20T06:50:33.335Z,19.12
2018-09-20T06:51:33.240Z,19.14
2018-09-20T06:52:33.252Z,19.22
2018-09-20T06:53:33.131Z,19.29
2018-09-20T06:54:33.120Z,19.37
2018-09-20T06:55:33.041Z,19.51
2018-09-20T06:56:33.071Z,19.47
2018-09-20T06:57:33.052Z,19.58
2018-09-20T06:58:32.897Z,19.66
2018-09-20T06:59:32.885Z,19.79
2018-09-20T07:00:32.812Z,19.77
2018-09-20T07:01:32.887Z,19.91
2018-09-20T07:02:32.768Z,19.99
2018-09-20T07:03:32.678Z,20.06
2018-09-20T07:04:32.648Z,20.18
2018-09-20T07:05:32.574Z,20.16
2018-09-20T07:06:32.571Z,20.25
2018-09-20T07:07:32.662Z,20.25
2018-09-20T07:08:32.455Z,20.31
2018-09-20T07:09:32.419Z,20.36
2018-09-20T07:10:32.419Z,20.39
2018-09-20T07:11:32.301Z,20.44
2018-09-20T07:12:32.338Z,20.60
2018-09-20T07:13:32.255Z,20.66
2018-09-20T07:14:32.226Z,20.69
2018-09-20T07:15:32.185Z,20.74
2018-09-20T07:16:32.108Z,20.82
2018-09-20T07:17:32.069Z,20.87
2018-09-20T07:18:31.977Z,20.90
2018-09-20T07:19:31.981Z,20.88
2018-09-20T07:20:31.953Z,21.06
2018-09-20T07:21:31.860Z,21.02
2018-09-20T07:22:31.830Z,20.99
2018-09-20T07:23:31.829Z,21.05
2018-09-20T07:24:31.835Z,21.07
2018-09-20T07:25:31.758Z,21.07
2018-09-20T07:26:31.626Z,21.11
2018-09-20T07:27:31.599Z,21.18
2018-09-20T07:28:31.593Z,21.11
2018-09-20T07:29:31.597Z,21.14
2018-09-20T07:30:31.475Z,21.15
2018-09-20T07:31:31.481Z,21.22
2018-09-20T07:32:31.478Z,21.18
2018-09-20T07:33:31.358Z,21.14
2018-09-20T07:34:31.285Z,21.18
2018-09-20T07:35:31.243Z,21.15
2018-09-20T07:36:31.240Z,21.07
2018-09-20T07:37:31.243Z,21.09
2018-09-20T07:38:31.124Z,21.06
2018-09-20T07:39:31.126Z,21.11
2018-09-20T07:40:31.054Z,21.14
2018-09-20T07:41:31.005Z,21.15
2018-09-20T07:42:31.007Z,21.20
2018-09-20T07:43:30.946Z,21.22
2018-09-20T07:44:30.889Z,21.39
2018-09-20T07:45:30.809Z,21.36
2018-09-20T07:46:30.770Z,21.45
2018-09-20T07:47:30.771Z,21.36
2018-09-20T07:48:30.771Z,21.54
2018-09-20T07:49:30.652Z,21.57
2018-09-20T07:50:30.581Z,21.66
2018-09-20T07:51:30.575Z,21.64
2018-09-20T07:52:30.536Z,21.79
2018-09-20T07:53:30.536Z,21.83
2018-09-20T07:54:30.457Z,21.79
2018-09-20T07:55:30.424Z,21.80
2018-09-20T07:56:30.437Z,21.95
2018-09-20T07:57:30.301Z,22.08
2018-09-20T07:58:30.301Z,22.41
2018-09-20T07:59:30.221Z,22.84
2018-09-20T08:00:30.183Z,23.44
2018-09-20T08:01:30.223Z,23.98
2018-09-20T08:02:30.098Z,24.33
2018-09-20T08:03:30.066Z,24.86
2018-09-20T08:04:29.983Z,25.35
2018-09-20T08:05:29.947Z,25.66
2018-09-20T08:06:30.128Z,25.88
2018-09-20T08:07:29.954Z,26.55
2018-09-20T08:08:29.951Z,26.97
2018-09-20T08:09:29.952Z,27.03
2018-09-20T08:10:29.833Z,27.17
2018-09-20T08:11:29.954Z,27.44
2018-09-20T08:12:29.834Z,27.55
2018-09-20T08:13:29.716Z,27.18
2018-09-20T08:14:29.836Z,26.25
2018-09-20T08:15:29.718Z,26.02
2018-09-20T08:16:29.598Z,25.88
2018-09-20T08:17:29.600Z,25.68
2018-09-20T08:18:29.721Z,26.02
2018-09-20T08:19:29.482Z,26.48
2018-09-20T08:20:29.483Z,27.15
2018-09-20T08:21:29.497Z,27.48
2018-09-20T08:22:29.366Z,27.36
2018-09-20T08:23:29.485Z,27.48
2018-09-20T08:24:29.367Z,27.48
2018-09-20T08:25:29.252Z,27.63
2018-09-20T08:26:29.251Z,27.64
2018-09-20T08:27:29.249Z,27.68
2018-09-20T08:28:29.252Z,27.98
2018-09-20T08:29:29.131Z,28.00
2018-09-20T08:30:29.135Z,27.96
2018-09-20T08:31:29.253Z,27.67
2018-09-20T08:32:29.015Z,27.40
2018-09-20T08:33:29.016Z,27.75
2018-09-20T08:34:29.016Z,27.68
2018-09-20T08:35:29.017Z,27.65
2018-09-20T08:36:28.934Z,27.87
2018-09-20T08:37:28.958Z,28.20
2018-09-20T08:38:28.917Z,28.57
2018-09-20T08:39:28.781Z,28.56
2018-09-20T08:40:28.785Z,28.81
2018-09-20T08:41:28.791Z,29.16
2018-09-20T08:42:28.663Z,29.76
2018-09-20T08:43:28.784Z,30.03
2018-09-20T08:44:28.667Z,30.23
2018-09-20T08:45:28.547Z,30.47
2018-09-20T08:46:28.548Z,30.13
2018-09-20T08:47:28.549Z,30.19
2018-09-20T08:48:28.549Z,30.15
2018-09-20T08:49:28.550Z,29.81
2018-09-20T08:50:28.431Z,29.51
2018-09-20T08:51:28.436Z,29.29
2018-09-20T08:52:28.313Z,29.19
2018-09-20T08:53:28.316Z,29.22
2018-09-20T08:54:28.435Z,28.76
2018-09-20T08:55:28.197Z,28.32
2018-09-20T08:56:28.197Z,28.37
2018-09-20T08:57:28.198Z,28.25
2018-09-20T08:58:28.199Z,28.74
2018-09-20T08:59:28.199Z,28.25
2018-09-20T09:00:28.081Z,28.14
2018-09-20T09:01:28.083Z,28.27
2018-09-20T09:02:27.962Z,28.41
2018-09-20T09:03:27.964Z,28.22
2018-09-20T09:04:28.138Z,28.23
2018-09-20T09:05:27.846Z,28.17
2018-09-20T09:06:27.846Z,28.12
2018-09-20T09:07:27.784Z,28.20
2018-09-20T09:08:27.847Z,28.56
2018-09-20T09:09:27.849Z,28.72
2018-09-20T09:10:27.850Z,29.14
2018-09-20T09:11:27.664Z,29.39
2018-09-20T09:12:27.612Z,29.60
2018-09-20T09:13:27.546Z,29.39
2018-09-20T09:14:27.499Z,29.60
2018-09-20T09:15:27.501Z,29.93
2018-09-20T09:16:27.383Z,29.94
2018-09-20T09:17:27.386Z,30.16
2018-09-20T09:18:27.310Z,30.35
2018-09-20T09:19:27.266Z,30.16
2018-09-20T09:20:27.313Z,30.23
2018-09-20T09:21:27.267Z,30.62
2018-09-20T09:22:27.198Z,30.85
2018-09-20T09:23:27.156Z,31.06
2018-09-20T09:24:27.148Z,30.81
2018-09-20T09:25:27.069Z,30.63
2018-09-20T09:26:27.150Z,30.84
2018-09-20T09:27:27.034Z,31.18
2018-09-20T09:28:26.968Z,31.33
2018-09-20T09:29:26.913Z,30.81
2018-09-20T09:30:26.915Z,30.68
2018-09-20T09:31:26.917Z,31.14
2018-09-20T09:32:26.794Z,31.37
2018-09-20T09:33:26.795Z,31.56
2018-09-20T09:34:26.724Z,31.15
2018-09-20T09:35:26.683Z,30.72
2018-09-20T09:36:26.718Z,30.40
2018-09-20T09:37:26.598Z,30.37
2018-09-20T09:38:26.561Z,30.19
2018-09-20T09:39:26.560Z,30.39
2018-09-20T09:40:26.560Z,30.54
2018-09-20T09:41:26.489Z,30.54
2018-09-20T09:42:26.478Z,30.32
2018-09-20T09:43:26.443Z,30.57
2018-09-20T09:44:26.361Z,30.50
2018-09-20T09:45:26.361Z,29.88
2018-09-20T09:46:26.326Z,29.94
2018-09-20T09:47:26.250Z,29.82
2018-09-20T09:48:26.207Z,29.94
2018-09-20T09:49:26.209Z,30.28
2018-09-20T09:50:26.208Z,30.63
2018-09-20T09:51:26.091Z,30.66
2018-09-20T09:52:26.090Z,30.44
2018-09-20T09:53:26.004Z,30.30
2018-09-20T09:54:26.043Z,30.10
2018-09-20T09:55:26.094Z,30.09
2018-09-20T09:56:25.975Z,29.84
2018-09-20T09:57:25.895Z,29.45
2018-09-20T09:58:25.857Z,29.53
2018-09-20T09:59:25.857Z,29.60
2018-09-20T10:00:25.858Z,29.49
2018-09-20T10:01:25.740Z,29.57
2018-09-20T10:02:25.769Z,29.56
2018-09-20T10:03:25.660Z,29.51
2018-09-20T10:04:25.622Z,29.65
2018-09-20T10:05:25.654Z,29.81
2018-09-20T10:06:25.537Z,29.94
2018-09-20T10:07:25.542Z,29.91
2018-09-20T10:08:25.506Z,29.69
2018-09-20T10:09:25.433Z,29.53
2018-09-20T10:10:25.427Z,29.50
2018-09-20T10:11:25.389Z,29.50
2018-09-20T10:12:25.325Z,29.19
2018-09-20T10:13:25.359Z,29.29
2018-09-20T10:14:25.273Z,29.42
2018-09-20T10:15:25.281Z,29.47
2018-09-20T10:16:25.180Z,29.53
2018-09-20T10:17:25.196Z,29.68
2018-09-20T10:18:25.155Z,29.60
2018-09-20T10:19:25.066Z,29.51
2018-09-20T10:20:25.037Z,29.76
2018-09-20T10:21:25.078Z,29.41
2018-09-20T10:22:25.042Z,28.91
2018-09-20T10:23:24.972Z,28.79
2018-09-20T10:24:24.921Z,28.88
2018-09-20T10:25:24.835Z,29.32
2018-09-20T10:26:24.804Z,29.36
2018-09-20T10:27:24.851Z,29.66
2018-09-20T10:28:24.854Z,30.03
2018-09-20T10:29:24.698Z,30.03
2018-09-20T10:30:24.689Z,29.65
2018-09-20T10:31:24.659Z,29.31
2018-09-20T10:32:24.703Z,29.12
2018-09-20T10:33:24.571Z,29.42
2018-09-20T10:34:24.494Z,29.60
2018-09-20T10:35:24.463Z,29.39
2018-09-20T10:36:24.456Z,29.31
2018-09-20T10:37:24.465Z,29.19
2018-09-20T10:38:24.456Z,29.44
2018-09-20T10:39:24.342Z,29.13
2018-09-20T10:40:24.336Z,29.17
2018-09-20T10:41:24.252Z,29.49
2018-09-20T10:42:24.224Z,29.87
2018-09-20T10:43:24.260Z,29.95
2018-09-20T10:44:24.225Z,29.93
2018-09-20T10:45:24.108Z,29.65
2018-09-20T10:46:24.107Z,29.76
2018-09-20T10:47:24.112Z,29.68
2018-09-20T10:48:23.989Z,29.87
2018-09-20T10:49:24.017Z,29.90
2018-09-20T10:50:23.904Z,30.03
2018-09-20T10:51:23.989Z,29.94
2018-09-20T10:52:23.871Z,29.90
2018-09-20T10:53:23.781Z,29.50
2018-09-20T10:54:23.790Z,29.53
2018-09-20T10:55:23.756Z,29.49
2018-09-20T10:56:23.752Z,29.47
2018-09-20T10:57:23.675Z,29.31
2018-09-20T10:58:23.634Z,29.53
2018-09-20T10:59:23.640Z,29.73
2018-09-20T11:00:23.636Z,29.61
2018-09-20T11:01:23.637Z,29.54
2018-09-20T11:02:23.524Z,29.68
2018-09-20T11:03:23.534Z,29.98
2018-09-20T11:04:23.436Z,30.19
2018-09-20T11:05:23.401Z,30.43
2018-09-20T11:06:23.320Z,30.40
2018-09-20T11:07:23.284Z,30.05
2018-09-20T11:08:23.284Z,29.93
2018-09-20T11:09:23.284Z,30.00
2018-09-20T11:10:23.167Z,29.79
2018-09-20T11:11:23.167Z,29.97
2018-09-20T11:12:23.084Z,30.31
2018-09-20T11:13:23.054Z,30.37
2018-09-20T11:14:23.085Z,30.25
2018-09-20T11:15:23.051Z,30.24
2018-09-20T11:16:22.970Z,30.19
2018-09-20T11:17:22.933Z,30.39
2018-09-20T11:18:22.933Z,30.23
2018-09-20T11:19:22.934Z,30.15
2018-09-20T11:20:22.814Z,30.02
2018-09-20T11:21:22.815Z,29.90
2018-09-20T11:22:22.817Z,30.13
2018-09-20T11:23:22.697Z,30.39
2018-09-20T11:24:22.741Z,30.25
2018-09-20T11:25:22.622Z,30.23
2018-09-20T11:26:22.580Z,30.24
2018-09-20T11:27:22.582Z,30.21
2018-09-20T11:28:22.582Z,30.27
2018-09-20T11:29:22.496Z,30.15
2018-09-20T11:30:22.467Z,29.88
2018-09-20T11:31:22.379Z,30.03
2018-09-20T11:32:22.377Z,30.03
2018-09-20T11:33:22.390Z,30.06
2018-09-20T11:34:22.468Z,29.47
2018-09-20T11:35:22.259Z,29.65
2018-09-20T11:36:22.296Z,29.41
2018-09-20T11:37:22.231Z,29.47
2018-09-20T11:38:22.232Z,29.47
2018-09-20T11:39:22.113Z,29.49
2018-09-20T11:40:22.233Z,29.79
2018-09-20T11:41:22.115Z,29.88
2018-09-20T11:42:21.999Z,30.16
2018-09-20T11:43:22.116Z,30.18
2018-09-20T11:44:21.997Z,30.09
2018-09-20T11:45:22.000Z,29.76
2018-09-20T11:46:22.119Z,29.61
2018-09-20T11:47:21.880Z,29.76
2018-09-20T11:48:21.882Z,30.00
2018-09-20T11:49:21.882Z,29.86
2018-09-20T11:50:21.763Z,30.05
2018-09-20T11:51:21.885Z,30.03
2018-09-20T11:52:21.887Z,30.23
2018-09-20T11:53:21.765Z,30.21
2018-09-20T11:54:21.648Z,30.30
2018-09-20T11:55:21.648Z,30.46
2018-09-20T11:56:21.649Z,30.59
2018-09-20T11:57:21.654Z,30.78
2018-09-20T11:58:21.531Z,30.83
2018-09-20T11:59:21.534Z,30.90
2018-09-20T12:00:21.412Z,30.66
2018-09-20T12:01:21.470Z,30.44
2018-09-20T12:02:22.497Z,30.66
2018-09-20T12:03:21.296Z,30.88
2018-09-20T12:04:21.297Z,30.83
2018-09-20T12:05:21.298Z,30.63
2018-09-20T12:06:21.179Z,30.39
2018-09-20T12:07:21.180Z,30.32
2018-09-20T12:08:21.301Z,30.15
2018-09-20T12:09:21.063Z,30.44
2018-09-20T12:10:21.066Z,30.34
2018-09-20T12:11:21.064Z,30.39
2018-09-20T12:12:21.064Z,30.43
2018-09-20T12:13:21.068Z,30.47
2018-09-20T12:14:20.987Z,30.10
2018-09-20T12:15:20.949Z,30.08
2018-09-20T12:16:20.828Z,30.43
2018-09-20T12:17:20.828Z,30.63
2018-09-20T12:18:20.951Z,30.57
2018-09-20T12:19:20.713Z,30.63
2018-09-20T12:20:20.723Z,30.70
2018-09-20T12:21:20.713Z,30.55
2018-09-20T12:22:20.593Z,30.46
2018-09-20T12:23:20.715Z,30.63
2018-09-20T12:24:20.602Z,30.63
2018-09-20T12:25:20.597Z,30.72
2018-09-20T12:26:20.480Z,30.61
2018-09-20T12:27:20.478Z,30.59
2018-09-20T12:28:20.479Z,30.43
2018-09-20T12:29:21.560Z,30.12
2018-09-20T12:30:20.363Z,29.78
2018-09-20T12:31:20.431Z,29.88
2018-09-20T12:32:20.306Z,29.84
2018-09-20T12:33:20.244Z,29.90
2018-09-20T12:34:20.246Z,29.93
2018-09-20T12:35:20.321Z,29.97
2018-09-20T12:36:20.130Z,30.24
2018-09-20T12:37:20.129Z,30.51
2018-09-20T12:38:20.009Z,30.80
2018-09-20T12:39:20.009Z,30.80
2018-09-20T12:40:20.131Z,30.85
2018-09-20T12:41:19.892Z,30.90
2018-09-20T12:42:19.891Z,30.90
2018-09-20T12:43:19.915Z,31.10
2018-09-20T12:44:19.778Z,30.90
2018-09-20T12:45:19.833Z,30.80
2018-09-20T12:46:19.777Z,30.31
2018-09-20T12:47:19.776Z,30.13
2018-09-20T12:48:19.632Z,29.95
2018-09-20T12:49:19.592Z,29.87
2018-09-20T12:50:19.784Z,29.98
2018-09-20T12:51:19.477Z,30.28
2018-09-20T12:52:19.552Z,30.37